Time;durP1;ratioP1;P1;durP2;ratioP2;P2;SDS_P1;SDS_P2;PMS_P1;PMS_P2;Temp;Humidity;BMP_temperature;BMP_pressure;BME280_temperature;BME280_humidity;BME280_pressure;Samples;Min_cycle;Max_cycle;Signal;HPM_P1;HPM_P2
2023/12/11 00:02:22;;;;;;;51.40;15.15;;;;;;;9.32;100.00;99736.75;10332199;28;20048;-70
2023/12/11 00:07:23;;;;;;;63.20;13.63;;;;;;;9.43;100.00;99773.03;10331982;28;20039;-70
2023/12/11 00:12:23;;;;;;;40.45;12.77;;;;;;;9.44;100.00;99769.28;10332504;28;20046;-69
2023/12/11 00:17:23;;;;;;;50.38;13.32;;;;;;;9.45;100.00;99757.44;10332004;28;20069;-70
2023/12/11 00:22:24;;;;;;;61.80;12.13;;;;;;;9.51;100.00;99764.69;10333319;28;20078;-70
2023/12/11 00:27:25;;;;;;;39.70;12.63;;;;;;;9.58;100.00;99759.22;10340087;28;20122;-70
2023/12/11 00:32:25;;;;;;;49.17;12.23;;;;;;;9.61;100.00;99756.91;10323881;28;20117;-71
2023/12/11 00:37:26;;;;;;;49.75;12.77;;;;;;;9.75;100.00;99749.53;10339704;28;20038;-70
2023/12/11 00:42:26;;;;;;;33.28;13.38;;;;;;;9.90;100.00;99751.91;10340662;28;20594;-71
2023/12/11 00:47:27;;;;;;;35.60;12.77;;;;;;;9.97;100.00;99734.56;10339764;28;20126;-70
2023/12/11 00:52:27;;;;;;;33.22;11.68;;;;;;;10.05;100.00;99727.22;10338167;28;20114;-70
2023/12/11 00:57:27;;;;;;;47.30;11.50;;;;;;;10.14;100.00;99740.22;10306649;28;20074;-69
2023/12/11 01:02:28;;;;;;;58.75;12.77;;;;;;;10.11;100.00;99721.72;10339396;28;20090;-70
2023/12/11 01:07:28;;;;;;;39.00;13.32;;;;;;;9.99;100.00;99723.53;10338214;28;20042;-70
2023/12/11 01:12:29;;;;;;;48.58;13.40;;;;;;;9.83;100.00;99703.28;10337899;28;20481;-71
2023/12/11 01:17:29;;;;;;;33.60;10.77;;;;;;;9.82;100.00;99695.41;10337248;28;20023;-70
2023/12/11 01:22:29;;;;;;;42.85;14.35;;;;;;;9.84;100.00;99691.44;10336241;28;20097;-70
2023/12/11 01:27:30;;;;;;;36.67;12.00;;;;;;;9.95;100.00;99695.25;10338144;28;20042;-72
2023/12/11 01:32:30;;;;;;;48.00;10.63;;;;;;;10.05;100.00;99679.38;10321134;28;20054;-72
2023/12/11 01:37:31;;;;;;;35.22;10.95;;;;;;;9.90;100.00;99681.59;10335977;28;20061;-69
2023/12/11 01:42:32;;;;;;;0.65;0.65;;;;;;;9.57;100.00;99671.91;10338487;28;20045;-70
2023/12/11 01:47:33;;;;;;;0.93;0.93;;;;;;;9.46;100.00;99667.22;10340534;28;20040;-71
2023/12/11 01:52:33;;;;;;;0.80;0.80;;;;;;;9.45;100.00;99674.50;10335520;28;20058;-72
2023/12/11 01:57:34;;;;;;;0.98;0.98;;;;;;;9.48;100.00;99668.66;10336555;28;20046;-72
2023/12/11 02:02:35;;;;;;;3.85;3.17;;;;;;;9.48;100.00;99660.56;10336866;28;20030;-71
2023/12/11 02:07:35;;;;;;;3.40;3.28;;;;;;;9.52;100.00;99674.44;10335170;28;20424;-70
2023/12/11 02:12:36;;;;;;;1.45;1.45;;;;;;;9.53;100.00;99654.47;10319665;28;20038;-72
2023/12/11 02:17:36;;;;;;;3.67;3.33;;;;;;;9.49;100.00;99640.59;10336515;28;20034;-71
2023/12/11 02:22:37;;;;;;;0.40;0.40;;;;;;;9.51;100.00;99635.78;10334712;28;20038;-70
2023/12/11 02:27:37;;;;;;;3.20;3.03;;;;;;;9.49;100.00;99629.78;10318327;28;20030;-71
2023/12/11 02:32:37;;;;;;;0.60;0.60;;;;;;;9.51;100.00;99618.75;10333795;28;20112;-70
2023/12/11 02:37:38;;;;;;;0.75;0.75;;;;;;;9.55;100.00;99631.59;10335429;28;20155;-70
2023/12/11 02:42:45;;;;;;;3.10;2.90;;;;;;;9.63;100.00;99622.34;10334557;28;20057;-71
2023/12/11 02:47:45;;;;;;;4.57;2.83;;;;;;;9.69;100.00;99617.94;10334832;28;20061;-70
2023/12/11 02:52:46;;;;;;;1.85;1.75;;;;;;;9.75;100.00;99617.88;10332589;28;20089;-70
2023/12/11 02:57:46;;;;;;;16.80;5.97;;;;;;;9.77;100.00;99607.69;10332671;28;20073;-70
2023/12/11 03:02:47;;;;;;;2.72;2.63;;;;;;;9.76;100.00;99594.38;10334475;28;20061;-70
2023/12/11 03:07:47;;;;;;;2.70;2.47;;;;;;;9.75;100.00;99596.25;10333046;28;20030;-69
2023/12/11 03:12:48;;;;;;;0.95;0.95;;;;;;;9.83;100.00;99591.59;10333569;28;20125;-71
2023/12/11 03:17:48;;;;;;;0.45;0.45;;;;;;;9.77;100.00;99582.53;10333750;28;20026;-70
2023/12/11 03:22:48;;;;;;;2.30;2.10;;;;;;;9.69;100.00;99574.69;10333634;28;20061;-70
2023/12/11 03:27:49;;;;;;;52.83;13.43;;;;;;;9.60;100.00;99576.03;10333337;28;20049;-71
2023/12/11 03:32:49;;;;;;;69.13;14.32;;;;;;;9.57;100.00;99558.38;10334413;28;20093;-69
2023/12/11 03:37:50;;;;;;;35.10;11.68;;;;;;;9.59;100.00;99572.50;10333367;28;20066;-70
2023/12/11 03:42:50;;;;;;;55.85;11.45;;;;;;;9.49;100.00;99562.22;10332581;28;20122;-71
2023/12/11 03:47:51;;;;;;;42.17;12.75;;;;;;;9.50;100.00;99569.25;10331590;28;20491;-73
2023/12/11 03:52:51;;;;;;;52.13;13.07;;;;;;;9.46;100.00;99554.56;10331463;28;20076;-71
2023/12/11 03:57:51;;;;;;;49.17;12.93;;;;;;;9.47;100.00;99525.66;10333615;28;20058;-71
2023/12/11 04:02:52;;;;;;;35.70;11.70;;;;;;;9.50;100.00;99536.84;10333537;28;20049;-70
2023/12/11 04:07:52;;;;;;;52.70;14.77;;;;;;;9.55;100.00;99550.50;10331201;28;20035;-72
2023/12/11 04:12:53;;;;;;;46.15;11.02;;;;;;;9.54;100.00;99538.06;10331900;28;20038;-71
2023/12/11 04:17:53;;;;;;;33.00;11.68;;;;;;;9.64;100.00;99552.94;10331050;28;20042;-72
2023/12/11 04:22:53;;;;;;;35.97;10.50;;;;;;;9.63;100.00;99552.09;10331985;28;20489;-70
2023/12/11 04:27:54;;;;;;;50.92;13.20;;;;;;;9.64;100.00;99536.72;10332084;28;20031;-71
2023/12/11 04:32:54;;;;;;;35.88;10.40;;;;;;;9.69;100.00;99544.97;10332025;28;20038;-70
2023/12/11 04:37:55;;;;;;;66.03;13.43;;;;;;;9.67;100.00;99541.69;10332104;28;20081;-70
2023/12/11 04:42:55;;;;;;;44.95;12.25;;;;;;;9.63;100.00;99525.06;10331578;28;20062;-71
2023/12/11 04:47:55;;;;;;;34.35;8.70;;;;;;;9.57;100.00;99528.66;10332185;28;20121;-70
2023/12/11 04:52:56;;;;;;;20.73;8.43;;;;;;;9.55;100.00;99517.25;10332416;28;20137;-70
2023/12/11 04:57:56;;;;;;;32.22;9.88;;;;;;;9.52;100.00;99496.09;10331587;28;20169;-71
2023/12/11 05:02:56;;;;;;;33.38;9.40;;;;;;;9.51;100.00;99518.78;10331540;28;20042;-70
2023/12/11 05:07:57;;;;;;;16.23;8.02;;;;;;;9.48;100.00;99513.81;10332447;28;20042;-70
2023/12/11 05:12:57;;;;;;;20.48;7.32;;;;;;;9.52;100.00;99496.09;10338541;28;20156;-71
2023/12/11 05:17:58;;;;;;;36.95;11.50;;;;;;;9.51;100.00;99502.56;10338823;28;20034;-70
2023/12/11 05:22:58;;;;;;;26.52;6.57;;;;;;;9.57;100.00;99511.63;10340012;28;20438;-72
2023/12/11 05:27:58;;;;;;;48.75;8.57;;;;;;;9.50;100.00;99498.19;10374024;28;20018;-72
2023/12/11 05:32:59;;;;;;;13.65;6.60;;;;;;;9.50;100.00;99520.63;10356493;28;20031;-71
2023/12/11 05:37:59;;;;;;;20.15;6.72;;;;;;;9.42;100.00;99509.31;10339427;28;20180;-71
2023/12/11 05:43:00;;;;;;;18.63;6.13;;;;;;;9.37;100.00;99507.25;10338962;28;20486;-70
2023/12/11 05:48:00;;;;;;;34.75;8.43;;;;;;;9.40;100.00;99501.41;10338926;28;20053;-71
2023/12/11 05:53:01;;;;;;;19.30;5.80;;;;;;;9.47;100.00;99504.03;10336728;28;20137;-70
2023/12/11 05:58:01;;;;;;;16.38;6.97;;;;;;;9.58;100.00;99510.59;10336502;28;20107;-71
2023/12/11 06:03:03;;;;;;;16.88;5.57;;;;;;;9.68;100.00;99506.28;10336595;28;20508;-72
2023/12/11 06:08:04;;;;;;;22.30;6.20;;;;;;;9.69;100.00;99504.41;10337284;28;20117;-72
2023/12/11 06:13:04;;;;;;;14.30;7.72;;;;;;;9.64;100.00;99512.41;10320860;28;20074;-70
2023/12/11 06:18:06;;;;;;;21.10;6.82;;;;;;;9.41;100.00;99521.16;10335083;28;20058;-72
2023/12/11 06:23:07;;;;;;;25.95;7.68;;;;;;;9.27;100.00;99551.00;10301989;28;20058;-71
2023/12/11 06:28:07;;;;;;;24.35;8.15;;;;;;;9.20;100.00;99557.53;10333956;28;20466;-70
2023/12/11 06:33:07;;;;;;;24.15;6.93;;;;;;;9.16;100.00;99567.94;10336129;28;20034;-69
2023/12/11 06:38:08;;;;;;;26.08;6.30;;;;;;;9.12;100.00;99584.78;10334028;28;20527;-69
2023/12/11 06:43:08;;;;;;;24.75;8.68;;;;;;;9.01;100.00;99597.13;10335560;28;20453;-71
2023/12/11 06:48:09;;;;;;;30.58;7.47;;;;;;;8.93;100.00;99595.50;10333020;28;20054;-69
2023/12/11 06:53:09;;;;;;;15.93;6.68;;;;;;;8.88;100.00;99614.25;10334585;28;20058;-72
2023/12/11 06:58:09;;;;;;;17.80;4.97;;;;;;;8.88;100.00;99611.56;10334198;28;20383;-70
2023/12/11 07:03:10;;;;;;;14.55;4.55;;;;;;;8.89;100.00;99621.31;10334111;28;20038;-71
2023/12/11 07:08:15;;;;;;;23.40;5.82;;;;;;;8.92;100.00;99626.28;10333680;28;20360;-70
2023/12/11 07:13:15;;;;;;;14.23;5.88;;;;;;;9.00;100.00;99628.72;10318918;28;20038;-71
2023/12/11 07:18:15;;;;;;;21.15;5.38;;;;;;;8.99;100.00;99664.84;10333261;28;20462;-72
2023/12/11 07:23:16;;;;;;;17.90;5.55;;;;;;;9.03;100.00;99673.34;10332583;28;20037;-71
2023/12/11 07:28:16;;;;;;;23.48;4.88;;;;;;;9.10;100.00;99692.22;10334199;28;20061;-71
2023/12/11 07:33:17;;;;;;;12.88;4.68;;;;;;;9.14;100.00;99706.94;10360613;28;20045;-71
2023/12/11 07:38:17;;;;;;;20.73;6.07;;;;;;;9.13;100.00;99718.78;10349147;28;20030;-71
2023/12/11 07:43:18;;;;;;;10.10;4.43;;;;;;;9.17;100.00;99730.81;10337572;28;20054;-73
2023/12/11 07:48:18;;;;;;;14.70;4.07;;;;;;;9.20;100.00;99742.00;10334909;28;20038;-71
2023/12/11 07:53:19;;;;;;;22.10;6.80;;;;;;;9.24;100.00;99755.91;10316293;28;20112;-70
2023/12/11 07:58:19;;;;;;;19.42;4.75;;;;;;;9.20;100.00;99768.19;10332716;28;20069;-72
2023/12/11 08:03:19;;;;;;;23.17;6.47;;;;;;;9.18;100.00;99786.47;10333573;28;20096;-71
2023/12/11 08:08:20;;;;;;;21.58;6.97;;;;;;;9.20;100.00;99809.53;10334188;28;20470;-73
2023/12/11 08:13:20;;;;;;;8.02;4.07;;;;;;;9.10;100.00;99821.84;10331870;28;20034;-74
2023/12/11 08:18:21;;;;;;;0.38;0.38;;;;;;;8.97;100.00;99850.56;10331336;28;20070;-75
2023/12/11 08:23:21;;;;;;;6.70;3.60;;;;;;;8.88;100.00;99854.53;10333774;28;20038;-72
2023/12/11 08:28:22;;;;;;;0.40;0.40;;;;;;;8.82;100.00;99872.41;10332820;28;20133;-71
2023/12/11 08:33:22;;;;;;;0.85;0.85;;;;;;;8.72;100.00;99896.31;10331871;28;20597;-71
2023/12/11 08:38:23;;;;;;;0.90;0.90;;;;;;;8.72;100.00;99909.81;10332727;28;20168;-73
2023/12/11 08:43:24;;;;;;;0.90;0.90;;;;;;;8.60;100.00;99904.19;10333913;28;20047;-71
2023/12/11 08:48:24;;;;;;;0.88;0.88;;;;;;;8.61;100.00;99916.69;10340961;28;20474;-73
2023/12/11 08:53:24;;;;;;;0.50;0.50;;;;;;;8.63;100.00;99934.50;10341700;28;20093;-73
2023/12/11 08:58:25;;;;;;;1.40;1.30;;;;;;;8.68;100.00;99938.25;10341104;28;20490;-73
2023/12/11 09:03:26;;;;;;;4.28;3.90;;;;;;;8.74;100.00;99953.63;10340222;28;20038;-73
2023/12/11 09:08:26;;;;;;;1.95;1.95;;;;;;;8.76;100.00;99961.50;10340912;28;20462;-72
2023/12/11 09:13:27;;;;;;;0.40;0.40;;;;;;;8.74;100.00;99985.16;10339079;28;20077;-74
2023/12/11 09:18:27;;;;;;;0.40;0.40;;;;;;;8.83;100.00;99994.72;10339006;28;20066;-72
2023/12/11 09:23:29;;;;;;;0.50;0.50;;;;;;;8.94;100.00;99994.09;10338643;28;20034;-72
2023/12/11 09:28:29;;;;;;;0.50;0.50;;;;;;;8.99;100.00;100007.78;10337401;28;20035;-73
2023/12/11 09:33:30;;;;;;;0.77;0.77;;;;;;;9.02;100.00;100026.25;10337844;28;20035;-71
2023/12/11 09:38:31;;;;;;;0.40;0.40;;;;;;;9.16;100.00;100042.50;10337102;28;20379;-73
2023/12/11 09:43:31;;;;;;;0.30;0.30;;;;;;;9.25;100.00;100052.00;10338933;28;20038;-72
2023/12/11 09:48:31;;;;;;;0.60;0.60;;;;;;;9.30;100.00;100069.25;10337519;28;20035;-70
2023/12/11 09:53:32;;;;;;;0.30;0.30;;;;;;;9.25;100.00;100079.88;10338791;28;20122;-70
2023/12/11 09:58:32;;;;;;;0.77;0.77;;;;;;;9.19;100.00;100090.66;10337510;28;20050;-71
2023/12/11 10:03:33;;;;;;;0.52;0.52;;;;;;;9.25;100.00;100108.75;10337575;28;20038;-71
2023/12/11 10:08:43;;;;;;;1.10;1.10;;;;;;;9.36;100.00;100118.09;10338062;28;20042;-73
2023/12/11 10:13:43;;;;;;;4.65;1.95;;;;;;;9.34;100.00;100125.56;10319345;28;20038;-72
2023/12/11 10:18:48;;;;;;;1.75;1.75;;;;;;;9.25;100.00;100141.16;10335168;28;20038;-71
2023/12/11 10:24:04;;;;;;;0.40;0.40;;;;;;;9.23;100.00;100146.78;10337193;28;20117;-71
2023/12/11 10:29:26;;;;;;;0.50;0.50;;;;;;;9.15;100.00;100138.88;10336523;28;20050;-71
2023/12/11 10:34:41;;;;;;;0.68;0.68;;;;;;;9.22;100.00;100160.47;10337643;28;20089;-72
2023/12/11 10:39:55;;;;;;;0.82;0.82;;;;;;;9.34;100.00;100164.22;10336211;28;20156;-72
2023/12/11 10:44:55;;;;;;;9.93;4.18;;;;;;;9.49;100.00;100172.97;10335402;28;20026;-70
2023/12/11 10:50:00;;;;;;;26.05;7.03;;;;;;;9.59;100.00;100175.25;10335815;28;20483;-74
2023/12/11 10:55:02;;;;;;;11.15;5.00;;;;;;;9.53;100.00;100185.03;10319430;28;20090;-71
2023/12/11 11:00:04;;;;;;;14.30;5.28;;;;;;;9.56;100.00;100186.47;10335456;28;20046;-70
2023/12/11 11:05:05;;;;;;;11.30;5.50;;;;;;;9.66;100.00;100184.19;10335116;28;20034;-71
2023/12/11 11:10:12;;;;;;;3.35;2.75;;;;;;;9.72;100.00;100191.47;10333209;28;20042;-70
2023/12/11 11:15:20;;;;;;;11.50;4.03;;;;;;;9.70;100.00;100206.22;10334544;28;20050;-71
2023/12/11 11:20:20;;;;;;;9.05;3.83;;;;;;;9.64;100.00;100204.38;10316739;28;20037;-70
2023/12/11 11:25:34;;;;;;;10.45;3.25;;;;;;;9.65;100.00;100212.25;10335217;28;20034;-69
2023/12/11 11:31:02;;;;;;;10.82;4.10;;;;;;;9.65;100.00;100219.56;10332590;28;20061;-70
2023/12/11 11:36:02;;;;;;;13.70;3.75;;;;;;;9.62;100.00;100225.38;10334940;28;20041;-70
2023/12/11 11:41:03;;;;;;;4.97;3.13;;;;;;;9.38;100.00;100238.47;10333460;28;20042;-71
2023/12/11 11:46:04;;;;;;;0.30;0.30;;;;;;;9.15;100.00;100236.09;10331787;28;20137;-74
2023/12/11 11:51:04;;;;;;;0.65;0.65;;;;;;;8.98;100.00;100234.84;10332596;28;20070;-71
2023/12/11 11:56:05;;;;;;;0.40;0.40;;;;;;;9.07;100.00;100233.63;10333494;28;20035;-71
2023/12/11 12:01:06;;;;;;;0.75;0.75;;;;;;;9.25;100.00;100239.28;10331855;28;20054;-71
2023/12/11 12:06:07;;;;;;;0.30;0.30;;;;;;;9.43;100.00;100238.66;10334746;28;20089;-73
2023/12/11 12:11:08;;;;;;;0.40;0.40;;;;;;;9.50;100.00;100234.09;10334479;28;20033;-73
2023/12/11 12:16:08;;;;;;;0.28;0.28;;;;;;;9.77;100.00;100244.94;10332811;28;20035;-75
2023/12/11 12:21:09;;;;;;;5.72;3.08;;;;;;;9.86;100.00;100251.78;10339356;28;20090;-72
2023/12/11 12:26:10;;;;;;;13.65;3.42;;;;;;;9.96;100.00;100246.78;10339777;28;20035;-73
2023/12/11 12:31:10;;;;;;;0.32;0.32;;;;;;;10.12;100.00;100252.81;10325772;28;20128;-71
2023/12/11 12:36:10;;;;;;;0.40;0.40;;;;;;;9.95;100.00;100265.91;10322565;28;20057;-70
2023/12/11 12:41:11;;;;;;;0.47;0.47;;;;;;;9.91;100.00;100272.78;10339053;28;20413;-72
2023/12/11 12:46:11;;;;;;;1.23;1.23;;;;;;;9.88;100.00;100278.63;10322822;28;20113;-72
2023/12/11 12:51:12;;;;;;;0.47;0.47;;;;;;;9.75;100.00;100285.69;10339003;28;20078;-71
2023/12/11 12:56:19;;;;;;;0.40;0.40;;;;;;;9.75;100.00;100274.03;10340338;28;20034;-71
2023/12/11 13:01:19;;;;;;;0.55;0.55;;;;;;;9.70;100.00;100280.06;10340355;28;20030;-73
2023/12/11 13:06:25;;;;;;;0.40;0.40;;;;;;;9.77;100.00;100283.59;10339372;28;20034;-71
2023/12/11 13:11:41;;;;;;;0.50;0.50;;;;;;;9.72;100.00;100282.56;10339381;28;20129;-71
2023/12/11 13:16:42;;;;;;;0.60;0.60;;;;;;;9.64;100.00;100280.06;10339603;28;20089;-71
2023/12/11 13:21:42;;;;;;;1.65;1.63;;;;;;;9.66;100.00;100303.13;10322778;28;20050;-72
2023/12/11 13:26:45;;;;;;;1.77;1.77;;;;;;;9.67;100.00;100301.28;10340804;28;20039;-72
2023/12/11 13:31:47;;;;;;;0.50;0.50;;;;;;;9.61;100.00;100304.81;10336445;28;20054;-71
2023/12/11 13:36:47;;;;;;;1.70;1.67;;;;;;;9.54;100.00;100297.53;10338184;28;20085;-72
2023/12/11 13:41:48;;;;;;;0.50;0.50;;;;;;;9.65;100.00;100306.88;10338407;28;20122;-69
2023/12/11 13:46:48;;;;;;;0.43;0.43;;;;;;;9.60;100.00;100314.75;10338206;28;20386;-70
2023/12/11 13:51:48;;;;;;;4.38;3.42;;;;;;;9.58;100.00;100324.97;10337338;28;20058;-71
2023/12/11 13:56:49;;;;;;;0.45;0.45;;;;;;;9.53;100.00;100325.56;10338194;28;20097;-70
2023/12/11 14:01:51;;;;;;;1.08;1.08;;;;;;;9.60;100.00;100339.09;10338138;28;20034;-73
2023/12/11 14:06:52;;;;;;;0.40;0.40;;;;;;;9.62;100.00;100338.91;10336725;28;20222;-70
2023/12/11 14:11:56;;;;;;;0.45;0.45;;;;;;;9.65;100.00;100352.00;10336621;28;20486;-71
2023/12/11 14:16:56;;;;;;;0.52;0.52;;;;;;;9.55;100.00;100350.53;10335594;28;20034;-71
2023/12/11 14:21:57;;;;;;;0.70;0.70;;;;;;;9.57;100.00;100374.66;10338244;28;20042;-72
2023/12/11 14:26:57;;;;;;;0.40;0.40;;;;;;;9.57;100.00;100368.41;10336895;28;20474;-70
2023/12/11 14:31:58;;;;;;;0.70;0.70;;;;;;;9.42;100.00;100374.81;10336351;28;20097;-71
2023/12/11 14:36:58;;;;;;;1.35;1.35;;;;;;;9.39;100.00;100387.91;10335962;28;20038;-70
2023/12/11 14:41:59;;;;;;;1.65;1.65;;;;;;;9.38;100.00;100392.50;10349654;28;20045;-72
2023/12/11 14:46:59;;;;;;;0.88;0.88;;;;;;;9.43;100.00;100405.38;10365430;28;20042;-72
2023/12/11 14:51:59;;;;;;;1.13;1.13;;;;;;;9.38;100.00;100407.84;10340247;28;20062;-70
2023/12/11 14:57:00;;;;;;;2.38;2.28;;;;;;;9.42;100.00;100431.59;10335370;28;20113;-72
2023/12/11 15:02:01;;;;;;;0.50;0.50;;;;;;;9.45;100.00;100433.88;10334294;28;20034;-71
2023/12/11 15:07:01;;;;;;;0.47;0.47;;;;;;;9.41;100.00;100443.44;10334883;28;20123;-71
2023/12/11 15:12:02;;;;;;;1.02;1.02;;;;;;;9.44;100.00;100434.91;10336037;28;20045;-71
2023/12/11 15:17:03;;;;;;;27.50;3.33;;;;;;;9.45;100.00;100436.59;10334765;28;20481;-70
2023/12/11 15:22:03;;;;;;;0.47;0.47;;;;;;;9.46;100.00;100453.63;10334196;28;20451;-70
2023/12/11 15:27:04;;;;;;;6.40;3.90;;;;;;;9.36;100.00;100454.00;10332888;28;20407;-70
2023/12/11 15:32:05;;;;;;;0.50;0.50;;;;;;;9.32;100.00;100452.75;10334308;28;20082;-70
2023/12/11 15:37:05;;;;;;;1.10;1.10;;;;;;;9.37;100.00;100460.22;10333741;28;20352;-70
2023/12/11 15:42:06;;;;;;;0.40;0.40;;;;;;;9.36;100.00;100459.41;10335159;28;20038;-70
2023/12/11 15:47:07;;;;;;;0.60;0.60;;;;;;;9.40;100.00;100462.53;10332729;28;20058;-72
2023/12/11 15:52:09;;;;;;;0.40;0.40;;;;;;;9.38;100.00;100457.34;10334244;28;20053;-71
2023/12/11 15:57:09;;;;;;;0.60;0.60;;;;;;;9.39;100.00;100463.59;10333115;28;20054;-70
2023/12/11 16:02:10;;;;;;;0.40;0.40;;;;;;;9.24;100.00;100471.81;10332878;28;20035;-71
2023/12/11 16:07:11;;;;;;;1.25;1.25;;;;;;;9.25;100.00;100484.28;10332115;28;20128;-69
2023/12/11 16:12:12;;;;;;;0.93;0.93;;;;;;;9.25;100.00;100492.38;10332096;28;20416;-70
2023/12/11 16:17:12;;;;;;;0.40;0.40;;;;;;;9.17;100.00;100503.34;10330865;28;20030;-70
2023/12/11 16:22:14;;;;;;;4.82;3.22;;;;;;;9.15;100.00;100506.25;10330995;28;20382;-69
2023/12/11 16:27:15;;;;;;;6.75;3.10;;;;;;;9.23;100.00;100505.28;10331785;28;20414;-70
2023/12/11 16:32:16;;;;;;;10.23;4.38;;;;;;;9.34;100.00;100504.69;10334230;28;20034;-72
2023/12/11 16:37:17;;;;;;;18.65;4.85;;;;;;;9.36;100.00;100504.50;10333703;28;20035;-70
2023/12/11 16:42:17;;;;;;;8.98;3.42;;;;;;;9.28;100.00;100524.41;10334568;28;20390;-71
2023/12/11 16:47:18;;;;;;;10.75;2.95;;;;;;;9.34;100.00;100514.69;10334375;28;20073;-70
2023/12/11 16:52:18;;;;;;;17.92;5.03;;;;;;;9.49;100.00;100532.44;10331488;28;20061;-71
2023/12/11 16:57:19;;;;;;;16.77;4.75;;;;;;;9.55;100.00;100534.34;10331203;28;20502;-71
2023/12/11 17:02:19;;;;;;;4.85;3.50;;;;;;;9.51;100.00;100533.09;10331343;28;20041;-70
2023/12/11 17:07:20;;;;;;;7.90;2.63;;;;;;;9.46;100.00;100532.84;10336615;28;20030;-71
2023/12/11 17:12:20;;;;;;;5.85;3.80;;;;;;;9.53;100.00;100532.88;10339101;28;20038;-72
2023/12/11 17:17:22;;;;;;;12.10;3.78;;;;;;;9.47;100.00;100539.06;10340478;28;20038;-69
2023/12/11 17:22:22;;;;;;;13.57;3.08;;;;;;;9.51;100.00;100541.19;10337311;28;20429;-70
2023/12/11 17:27:23;;;;;;;14.75;3.60;;;;;;;9.56;100.00;100551.41;10338842;28;20046;-71
2023/12/11 17:32:23;;;;;;;13.18;4.05;;;;;;;9.57;100.00;100552.22;10338392;28;20073;-71
2023/12/11 17:37:23;;;;;;;9.18;4.03;;;;;;;9.49;100.00;100562.16;10337979;28;20106;-70
2023/12/11 17:42:26;;;;;;;9.95;3.40;;;;;;;9.34;100.00;100568.72;10338645;28;20046;-69
2023/12/11 17:47:27;;;;;;;10.15;3.33;;;;;;;9.32;100.00;100574.34;10336994;28;20035;-69
2023/12/11 17:52:27;;;;;;;6.57;2.95;;;;;;;9.26;100.00;100580.53;10335909;28;20054;-70
2023/12/11 17:57:28;;;;;;;8.55;2.95;;;;;;;9.27;100.00;100584.88;10320063;28;20034;-70
2023/12/11 18:02:28;;;;;;;10.52;3.25;;;;;;;9.25;100.00;100589.63;10337328;28;20098;-69
2023/12/11 18:07:29;;;;;;;8.30;3.95;;;;;;;9.25;100.00;100595.91;10337513;28;20046;-69
2023/12/11 18:12:29;;;;;;;2.85;2.17;;;;;;;9.27;100.00;100593.81;10335283;28;20474;-71
2023/12/11 18:17:29;;;;;;;0.40;0.40;;;;;;;9.28;100.00;100594.66;10337161;28;20065;-71
2023/12/11 18:22:30;;;;;;;1.20;1.20;;;;;;;9.27;100.00;100603.81;10335335;28;20045;-74
2023/12/11 18:27:34;;;;;;;0.30;0.30;;;;;;;9.22;100.00;100600.84;10336599;28;20034;-73
2023/12/11 18:32:35;;;;;;;0.50;0.50;;;;;;;9.10;100.00;100607.84;10335314;28;20053;-73
2023/12/11 18:37:35;;;;;;;0.95;0.95;;;;;;;9.02;100.00;100609.63;10318255;28;20126;-71
2023/12/11 18:42:35;;;;;;;0.50;0.50;;;;;;;9.04;100.00;100617.53;10335720;28;20030;-72
2023/12/11 18:47:36;;;;;;;2.28;2.17;;;;;;;9.04;100.00;100612.13;10336116;28;20169;-72
2023/12/11 18:52:36;;;;;;;0.30;0.30;;;;;;;9.07;100.00;100620.69;10334765;28;20058;-71
2023/12/11 18:57:37;;;;;;;0.30;0.30;;;;;;;9.04;100.00;100623.78;10335402;28;20117;-74
2023/12/11 19:02:37;;;;;;;0.40;0.40;;;;;;;9.00;100.00;100630.59;10334083;28;20120;-72
2023/12/11 19:07:37;;;;;;;0.40;0.40;;;;;;;9.01;100.00;100634.97;10335268;28;20039;-73
2023/12/11 19:12:38;;;;;;;0.30;0.30;;;;;;;9.02;100.00;100642.03;10333099;28;20117;-71
2023/12/11 19:17:38;;;;;;;0.77;0.75;;;;;;;9.08;100.00;100641.25;10333708;28;20438;-72
2023/12/11 19:22:39;;;;;;;0.30;0.30;;;;;;;9.10;100.00;100648.34;10334340;28;20065;-73
2023/12/11 19:27:41;;;;;;;0.40;0.40;;;;;;;9.06;100.00;100648.75;10335202;28;20410;-73
2023/12/11 19:32:41;;;;;;;0.32;0.32;;;;;;;9.12;100.00;100654.38;10317557;28;20086;-71
2023/12/11 19:37:42;;;;;;;0.60;0.60;;;;;;;9.14;100.00;100655.84;10333093;28;20026;-72
2023/12/11 19:42:45;;;;;;;0.40;0.40;;;;;;;9.10;100.00;100656.47;10333313;28;20038;-75
2023/12/11 19:47:46;;;;;;;0.93;0.50;;;;;;;8.93;100.00;100664.78;10333248;28;20038;-74
2023/12/11 19:52:46;;;;;;;0.30;0.30;;;;;;;8.76;100.00;100657.97;10333473;28;20054;-73
2023/12/11 19:57:47;;;;;;;0.40;0.40;;;;;;;8.64;100.00;100671.13;10333209;28;20031;-73
2023/12/11 20:02:47;;;;;;;0.40;0.40;;;;;;;8.57;100.00;100676.47;10331725;28;20121;-72
2023/12/11 20:07:48;;;;;;;0.30;0.30;;;;;;;8.58;100.00;100672.75;10332846;28;20050;-71
2023/12/11 20:12:48;;;;;;;0.50;0.50;;;;;;;8.54;100.00;100666.03;10332935;28;20343;-73
2023/12/11 20:17:48;;;;;;;0.40;0.40;;;;;;;8.66;100.00;100673.66;10333070;28;20081;-72
2023/12/11 20:22:49;;;;;;;0.65;0.65;;;;;;;8.77;100.00;100686.63;10335990;28;20026;-74
2023/12/11 20:27:49;;;;;;;0.50;0.50;;;;;;;8.85;100.00;100684.66;10359711;28;20312;-74
2023/12/11 20:32:50;;;;;;;0.47;0.47;;;;;;;8.90;100.00;100694.03;10366885;28;20031;-76
2023/12/11 20:37:50;;;;;;;5.80;2.80;;;;;;;8.88;100.00;100694.25;10339769;28;20030;-70
2023/12/11 20:42:50;;;;;;;6.07;2.97;;;;;;;8.81;100.00;100704.16;10343391;28;20046;-74
2023/12/11 20:47:51;;;;;;;5.85;3.15;;;;;;;8.81;100.00;100709.56;10341513;28;20054;-72
2023/12/11 20:52:54;;;;;;;6.82;2.35;;;;;;;8.77;100.00;100700.13;10341775;28;20085;-71
2023/12/11 20:57:54;;;;;;;7.13;2.53;;;;;;;8.79;100.00;100712.44;10340419;28;20035;-72
2023/12/11 21:02:55;;;;;;;4.80;2.20;;;;;;;8.75;100.00;100710.31;10337615;28;20193;-73
2023/12/11 21:07:56;;;;;;;8.55;2.55;;;;;;;8.74;100.00;100724.81;10339892;28;20113;-71
2023/12/11 21:12:56;;;;;;;5.95;2.15;;;;;;;8.71;100.00;100726.06;10340004;28;20177;-72
2023/12/11 21:17:57;;;;;;;5.88;3.03;;;;;;;8.66;100.00;100723.06;10339517;28;20137;-71
2023/12/11 21:22:57;;;;;;;6.85;3.10;;;;;;;8.66;100.00;100735.75;10340100;28;20046;-73
2023/12/11 21:27:58;;;;;;;8.20;3.58;;;;;;;8.62;100.00;100748.78;10338991;28;20120;-74
2023/12/11 21:32:58;;;;;;;6.47;3.35;;;;;;;8.58;100.00;100759.13;10338382;28;20030;-70
2023/12/11 21:37:58;;;;;;;7.25;2.85;;;;;;;8.59;100.00;100758.09;10340588;28;20106;-74
2023/12/11 21:42:59;;;;;;;11.73;3.83;;;;;;;8.55;100.00;100748.69;10339447;28;20148;-72
2023/12/11 21:47:59;;;;;;;11.55;3.90;;;;;;;8.41;100.00;100754.09;10337553;28;20041;-72
2023/12/11 21:53:00;;;;;;;8.30;2.55;;;;;;;8.27;100.00;100756.59;10335812;28;20137;-72
2023/12/11 21:58:00;;;;;;;12.52;4.38;;;;;;;8.20;100.00;100754.81;10336316;28;20050;-72
2023/12/11 22:03:01;;;;;;;21.30;3.92;;;;;;;8.16;100.00;100755.16;10336916;28;20038;-72
2023/12/11 22:08:01;;;;;;;11.38;3.63;;;;;;;8.14;100.00;100757.22;10337868;28;20034;-71
2023/12/11 22:13:01;;;;;;;3.30;2.67;;;;;;;8.11;100.00;100757.59;10337027;28;20481;-70
2023/12/11 22:18:02;;;;;;;5.97;3.22;;;;;;;8.07;100.00;100759.00;10336528;28;20114;-72
2023/12/11 22:23:05;;;;;;;17.00;4.70;;;;;;;8.01;100.00;100769.66;10335612;28;20098;-71
2023/12/11 22:28:06;;;;;;;9.63;4.05;;;;;;;7.98;100.00;100765.50;10336033;28;20058;-71
2023/12/11 22:33:06;;;;;;;3.67;2.65;;;;;;;7.94;100.00;100764.16;10336838;28;20062;-69
2023/12/11 22:38:07;;;;;;;13.52;3.40;;;;;;;7.80;100.00;100770.38;10334685;28;20474;-72
2023/12/11 22:43:07;;;;;;;14.82;3.58;;;;;;;7.59;100.00;100763.81;10335797;28;20129;-71
2023/12/11 22:48:09;;;;;;;9.85;3.03;;;;;;;7.48;100.00;100768.81;10334959;28;20049;-70
2023/12/11 22:53:09;;;;;;;9.45;3.85;;;;;;;7.41;100.00;100764.13;10334613;28;20061;-71
2023/12/11 22:58:10;;;;;;;7.95;2.15;;;;;;;7.37;100.00;100759.28;10334785;28;20034;-74
2023/12/11 23:03:10;;;;;;;11.40;2.30;;;;;;;7.35;100.00;100762.16;10315981;28;20034;-74